createdAt,value
2024-01-07T00:00:08.009Z,48.50
2024-01-07T00:02:35.753Z,47.50
2024-01-07T00:05:03.537Z,47.30
2024-01-07T00:07:31.276Z,46.70
2024-01-07T00:09:59.001Z,46.70
2024-01-07T00:12:27.559Z,46.80
2024-01-07T00:15:00.921Z,47.30
2024-01-07T00:17:33.058Z,47.60
2024-01-07T00:20:06.067Z,46.90
2024-01-07T00:22:33.896Z,47.60
2024-01-07T00:25:03.396Z,46.90
2024-01-07T00:27:32.733Z,47.50
2024-01-07T00:30:02.104Z,47.20
2024-01-07T00:32:31.444Z,48.00
2024-01-07T00:34:59.357Z,47.10
2024-01-07T00:37:27.156Z,47.30
2024-01-07T00:39:54.973Z,47.30
2024-01-07T00:42:22.866Z,46.70
2024-01-07T00:44:51.170Z,47.10
2024-01-07T00:47:21.990Z,47.60
2024-01-07T00:49:53.210Z,46.70
2024-01-07T00:52:24.072Z,47.10
2024-01-07T00:54:55.099Z,46.10
2024-01-07T00:57:26.259Z,46.00
2024-01-07T00:59:59.203Z,46.90
2024-01-07T01:02:28.857Z,45.80
2024-01-07T01:04:58.425Z,47.20
2024-01-07T01:07:29.320Z,47.20
2024-01-07T01:09:59.309Z,45.50
2024-01-07T01:12:30.224Z,45.90
2024-01-07T01:15:02.311Z,46.20
2024-01-07T01:17:36.185Z,46.60
2024-01-07T01:20:08.036Z,47.70
2024-01-07T01:22:42.196Z,45.80
2024-01-07T01:25:16.290Z,46.40
2024-01-07T01:27:47.367Z,45.90
2024-01-07T01:30:21.370Z,46.10
2024-01-07T01:32:53.387Z,46.30
2024-01-07T01:35:21.114Z,45.70
2024-01-07T01:37:48.942Z,46.70
2024-01-07T01:40:16.700Z,46.60
2024-01-07T01:42:44.443Z,46.60
2024-01-07T01:45:12.106Z,47.10
2024-01-07T01:47:39.791Z,47.20
2024-01-07T01:50:07.505Z,46.80
2024-01-07T01:52:36.003Z,46.70
2024-01-07T01:55:03.885Z,46.20
2024-01-07T01:57:31.683Z,46.10
2024-01-07T02:00:03.553Z,46.40
2024-01-07T02:02:32.681Z,46.20
2024-01-07T02:05:00.544Z,46.40
2024-01-07T02:07:28.870Z,46.60
2024-01-07T02:09:56.634Z,45.80
2024-01-07T02:12:24.343Z,45.70
2024-01-07T02:14:52.061Z,46.70
2024-01-07T02:17:19.909Z,46.30
2024-01-07T02:19:47.982Z,46.40
2024-01-07T02:22:15.774Z,46.00
2024-01-07T02:24:43.577Z,46.90
2024-01-07T02:27:11.331Z,46.70
2024-01-07T02:29:39.133Z,45.80
2024-01-07T02:32:06.876Z,46.10
2024-01-07T02:34:35.048Z,45.90
2024-01-07T02:37:02.909Z,46.20
2024-01-07T02:39:30.624Z,46.10
2024-01-07T02:41:58.331Z,46.30
2024-01-07T02:44:26.053Z,46.30
2024-01-07T02:46:53.736Z,46.50
2024-01-07T02:49:21.547Z,46.30
2024-01-07T02:51:50.681Z,45.80
2024-01-07T02:54:18.589Z,46.00
2024-01-07T02:56:46.244Z,46.20
2024-01-07T02:59:13.872Z,46.10
2024-01-07T03:01:43.803Z,45.50
2024-01-07T03:04:14.267Z,45.70
2024-01-07T03:06:41.987Z,45.60
2024-01-07T03:09:11.379Z,46.00
2024-01-07T03:11:39.083Z,45.80
2024-01-07T03:14:06.759Z,46.40
2024-01-07T03:16:34.366Z,45.80
2024-01-07T03:19:03.287Z,46.40
2024-01-07T03:21:31.345Z,46.00
2024-01-07T03:23:59.103Z,45.90
2024-01-07T03:26:26.868Z,44.50
2024-01-07T03:28:54.569Z,45.80
2024-01-07T03:31:24.527Z,45.00
2024-01-07T03:33:52.500Z,45.80
2024-01-07T03:36:20.445Z,45.60
2024-01-07T03:38:48.148Z,46.10
2024-01-07T03:41:15.833Z,45.70
2024-01-07T03:43:43.596Z,45.40
2024-01-07T03:46:11.274Z,45.90
2024-01-07T03:48:39.035Z,46.20
2024-01-07T03:51:06.811Z,45.20
2024-01-07T03:53:34.524Z,45.40
2024-01-07T03:56:02.311Z,46.10
2024-01-07T03:58:30.020Z,45.60
2024-01-07T04:00:58.314Z,45.80
2024-01-07T04:03:26.201Z,44.50
2024-01-07T04:08:38.632Z,44.60
2024-01-07T04:11:06.524Z,44.70
2024-01-07T04:13:34.194Z,45.00
2024-01-07T04:16:01.898Z,45.40
2024-01-07T04:18:30.013Z,45.60
2024-01-07T04:20:58.211Z,46.10
2024-01-07T04:23:28.013Z,45.20
2024-01-07T04:25:56.235Z,45.70
2024-01-07T04:28:29.728Z,45.20
2024-01-07T04:31:01.406Z,46.10
2024-01-07T04:33:32.208Z,45.00
2024-01-07T04:36:05.922Z,45.50
2024-01-07T04:38:39.950Z,45.00
2024-01-07T04:41:16.185Z,44.60
2024-01-07T04:43:52.212Z,45.90
2024-01-07T04:46:28.276Z,45.00
2024-01-07T04:48:58.936Z,45.00
2024-01-07T04:51:31.703Z,44.60
2024-01-07T04:54:04.668Z,46.40
2024-01-07T04:56:39.593Z,45.50
2024-01-07T04:59:16.790Z,45.60
2024-01-07T05:01:52.696Z,45.00
2024-01-07T05:04:26.013Z,45.00
2024-01-07T05:06:56.181Z,44.40
2024-01-07T05:09:28.032Z,45.70
2024-01-07T05:12:04.599Z,45.10
2024-01-07T05:14:41.879Z,44.40
2024-01-07T05:17:13.802Z,45.70
2024-01-07T05:19:41.532Z,44.80
2024-01-07T05:22:09.392Z,44.80
2024-01-07T05:24:37.116Z,45.10
2024-01-07T05:27:04.845Z,44.80
2024-01-07T05:29:32.692Z,45.50
2024-01-07T05:32:01.437Z,45.50
2024-01-07T05:34:29.295Z,45.30
2024-01-07T05:36:57.241Z,44.10
2024-01-07T05:39:25.253Z,44.20
2024-01-07T05:41:53.323Z,44.00
2024-01-07T05:44:30.164Z,44.80
2024-01-07T05:47:03.203Z,44.10
2024-01-07T05:49:37.032Z,44.50
2024-01-07T05:52:05.573Z,44.90
2024-01-07T05:54:33.431Z,44.70
2024-01-07T05:57:01.206Z,44.40
2024-01-07T05:59:31.346Z,44.40
2024-01-07T06:02:05.333Z,44.10
2024-01-07T06:04:35.765Z,44.40
2024-01-07T06:07:05.996Z,44.00
2024-01-07T06:09:37.280Z,44.30
2024-01-07T06:12:07.793Z,43.80
2024-01-07T06:14:36.607Z,44.10
2024-01-07T06:17:05.180Z,45.20
2024-01-07T06:19:33.519Z,41.20
2024-01-07T06:22:01.254Z,40.70
2024-01-07T06:24:28.927Z,39.60
2024-01-07T06:26:56.596Z,38.90
2024-01-07T06:29:24.269Z,37.40
2024-01-07T06:31:52.016Z,36.90
2024-01-07T06:34:20.215Z,36.20
2024-01-07T06:36:47.962Z,36.60
2024-01-07T06:39:16.067Z,35.90
2024-01-07T06:41:43.977Z,34.70
2024-01-07T06:44:11.613Z,35.60
2024-01-07T06:46:39.228Z,36.10
2024-01-07T06:49:06.925Z,35.70
2024-01-07T06:51:34.742Z,35.20
2024-01-07T06:54:02.439Z,35.60
2024-01-07T06:56:30.115Z,36.20
2024-01-07T06:58:57.791Z,36.90
2024-01-07T07:01:25.632Z,37.20
2024-01-07T07:03:53.683Z,36.60
2024-01-07T07:06:21.482Z,36.80
2024-01-07T07:08:49.110Z,36.90
2024-01-07T07:11:16.974Z,37.70
2024-01-07T07:13:44.657Z,39.60
2024-01-07T07:16:13.483Z,39.70
2024-01-07T07:18:41.387Z,41.10
2024-01-07T07:21:09.480Z,41.30
2024-01-07T07:23:37.306Z,41.40
2024-01-07T07:26:04.966Z,41.70
2024-01-07T07:28:32.633Z,41.90
2024-01-07T07:31:00.496Z,42.00
2024-01-07T07:33:28.415Z,41.20
2024-01-07T07:35:56.248Z,41.00
2024-01-07T07:38:24.150Z,41.30
2024-01-07T07:40:54.418Z,41.80
2024-01-07T07:43:22.684Z,41.80
2024-01-07T07:45:50.555Z,42.50
2024-01-07T07:48:18.919Z,43.00
2024-01-07T07:50:46.566Z,42.50
2024-01-07T07:53:14.228Z,43.60
2024-01-07T07:55:41.872Z,43.70
2024-01-07T07:58:09.836Z,42.70
2024-01-07T08:00:37.988Z,42.60
2024-01-07T08:03:05.744Z,42.40
2024-01-07T08:05:33.545Z,42.20
2024-01-07T08:08:01.274Z,42.70
2024-01-07T08:10:29.753Z,42.60
2024-01-07T08:12:57.676Z,42.60
2024-01-07T08:15:27.268Z,42.40
2024-01-07T08:17:55.034Z,42.50
2024-01-07T08:20:23.590Z,42.10
2024-01-07T08:22:51.792Z,42.40
2024-01-07T08:25:19.638Z,41.60
2024-01-07T08:27:50.284Z,42.00
2024-01-07T08:30:19.776Z,42.10
2024-01-07T08:32:47.656Z,41.80
2024-01-07T08:35:17.841Z,40.70
2024-01-07T08:37:46.939Z,42.70
2024-01-07T08:40:15.179Z,42.10
2024-01-07T08:42:43.147Z,43.00
2024-01-07T08:45:10.814Z,42.40
2024-01-07T08:47:43.036Z,42.80
2024-01-07T08:50:13.938Z,42.80
2024-01-07T08:52:41.790Z,42.20
2024-01-07T08:55:11.188Z,42.40
2024-01-07T08:57:39.229Z,43.20
2024-01-07T09:00:08.741Z,42.40
2024-01-07T09:02:39.543Z,42.60
2024-01-07T09:05:08.642Z,43.20
2024-01-07T09:07:36.385Z,43.00
2024-01-07T09:10:04.285Z,41.80
2024-01-07T09:12:32.030Z,43.90
2024-01-07T09:15:00.622Z,41.30
2024-01-07T09:17:30.389Z,41.90
2024-01-07T09:20:00.760Z,43.30
2024-01-07T09:22:30.477Z,42.20
2024-01-07T09:24:59.801Z,42.90
2024-01-07T09:27:30.113Z,41.20
2024-01-07T09:29:59.373Z,42.60
2024-01-07T09:32:29.046Z,42.20
2024-01-07T09:34:56.929Z,42.30
2024-01-07T09:37:24.903Z,42.70
2024-01-07T09:39:52.599Z,43.40
2024-01-07T09:42:20.433Z,42.60
2024-01-07T09:44:48.327Z,42.80
2024-01-07T09:47:16.096Z,42.60
2024-01-07T09:49:45.459Z,42.80
2024-01-07T09:52:13.568Z,44.10
2024-01-07T09:54:41.876Z,42.90
2024-01-07T09:57:09.631Z,42.70
2024-01-07T09:59:38.148Z,43.60
2024-01-07T10:02:06.114Z,45.20
2024-01-07T10:04:34.219Z,44.80
2024-01-07T10:07:02.052Z,45.20
2024-01-07T10:09:29.874Z,45.00
2024-01-07T10:11:57.914Z,45.80
2024-01-07T10:14:27.567Z,44.10
2024-01-07T10:16:55.360Z,43.70
2024-01-07T10:19:23.735Z,43.70
2024-01-07T10:21:51.616Z,44.10
2024-01-07T10:24:21.714Z,43.80
2024-01-07T10:26:52.158Z,42.70
2024-01-07T10:29:23.800Z,43.10
2024-01-07T10:31:52.075Z,43.70
2024-01-07T10:34:21.053Z,43.20
2024-01-07T10:36:51.289Z,43.50
2024-01-07T10:39:22.463Z,43.00
2024-01-07T10:41:54.177Z,42.80
2024-01-07T10:44:24.809Z,42.90
2024-01-07T10:46:52.581Z,43.80
2024-01-07T10:49:20.409Z,43.90
2024-01-07T10:51:48.131Z,44.00
2024-01-07T10:54:15.904Z,43.30
2024-01-07T10:56:43.550Z,43.20
2024-01-07T10:59:11.290Z,42.60
2024-01-07T11:01:40.522Z,41.20
2024-01-07T11:04:08.521Z,41.90
2024-01-07T11:06:36.556Z,40.60
2024-01-07T11:09:04.713Z,42.30
2024-01-07T11:11:32.802Z,41.10
2024-01-07T11:14:00.979Z,42.20
2024-01-07T11:16:38.505Z,41.90
2024-01-07T11:19:08.711Z,41.30
2024-01-07T11:21:37.824Z,43.10
2024-01-07T11:24:11.922Z,41.70
2024-01-07T11:26:43.659Z,40.20
2024-01-07T11:29:12.111Z,42.10
2024-01-07T11:31:40.409Z,43.20
2024-01-07T11:34:09.060Z,42.50
2024-01-07T11:36:36.966Z,43.10
2024-01-07T11:39:05.150Z,42.40
2024-01-07T11:41:32.894Z,43.20
2024-01-07T11:44:05.211Z,41.70
2024-01-07T11:46:35.786Z,41.60
2024-01-07T11:49:04.241Z,43.90
2024-01-07T11:51:32.771Z,42.70
2024-01-07T11:54:01.015Z,42.40
2024-01-07T11:56:28.752Z,42.80
2024-01-07T11:58:57.521Z,42.20
2024-01-07T12:01:27.034Z,42.70
2024-01-07T12:03:57.846Z,42.10
2024-01-07T12:06:30.902Z,42.50
2024-01-07T12:09:06.238Z,41.40
2024-01-07T12:11:45.554Z,42.00
2024-01-07T12:14:17.854Z,42.10
2024-01-07T12:16:46.628Z,42.40
2024-01-07T12:19:14.563Z,42.50
2024-01-07T12:21:41.583Z,43.30
2024-01-07T12:24:09.415Z,42.30
2024-01-07T12:26:38.781Z,42.70
2024-01-07T12:29:08.069Z,42.70
2024-01-07T12:31:36.144Z,42.90
2024-01-07T12:34:04.325Z,42.50
2024-01-07T12:36:33.367Z,42.20
2024-01-07T12:39:01.131Z,42.30
2024-01-07T12:41:30.477Z,42.70
2024-01-07T12:43:58.452Z,42.80
2024-01-07T12:46:26.607Z,39.80
2024-01-07T12:48:54.554Z,38.10
2024-01-07T12:51:24.374Z,36.70
2024-01-07T12:53:52.520Z,37.10
2024-01-07T12:56:20.522Z,36.50
2024-01-07T12:58:48.449Z,36.10
2024-01-07T13:01:16.391Z,35.30
2024-01-07T13:03:44.280Z,35.30
2024-01-07T13:06:13.326Z,34.60
2024-01-07T13:08:41.281Z,35.90
2024-01-07T13:11:10.158Z,33.30
2024-01-07T13:13:38.530Z,32.70
2024-01-07T13:16:06.470Z,32.20
2024-01-07T13:18:35.202Z,32.80
2024-01-07T13:21:02.964Z,32.80
2024-01-07T13:23:30.938Z,33.50
2024-01-07T13:25:58.670Z,32.30
2024-01-07T13:28:26.598Z,32.50
2024-01-07T13:30:54.556Z,31.70
2024-01-07T13:33:23.107Z,32.60
2024-01-07T13:35:50.919Z,33.40
2024-01-07T13:38:19.195Z,33.80
2024-01-07T13:40:46.956Z,34.20
2024-01-07T13:43:14.960Z,33.30
2024-01-07T13:45:42.820Z,35.50
2024-01-07T13:48:10.650Z,36.80
2024-01-07T13:50:38.502Z,39.50
2024-01-07T13:53:06.222Z,39.80
2024-01-07T13:55:33.943Z,39.10
2024-01-07T13:58:02.055Z,39.80
2024-01-07T14:00:30.575Z,40.90
2024-01-07T14:02:58.329Z,39.90
2024-01-07T14:05:26.068Z,40.00
2024-01-07T14:07:54.061Z,39.90
2024-01-07T14:10:21.826Z,39.60
2024-01-07T14:12:49.712Z,40.60
2024-01-07T14:15:18.463Z,40.00
2024-01-07T14:17:46.346Z,40.50
2024-01-07T14:20:14.144Z,41.10
2024-01-07T14:22:41.876Z,40.90
2024-01-07T14:25:09.915Z,41.00
2024-01-07T14:27:37.732Z,41.10
2024-01-07T14:30:05.474Z,40.90
2024-01-07T14:32:34.421Z,41.40
2024-01-07T14:35:02.451Z,41.10
2024-01-07T14:37:30.274Z,41.00
2024-01-07T14:39:58.115Z,41.40
2024-01-07T14:42:26.157Z,40.70
2024-01-07T14:44:53.914Z,41.40
2024-01-07T14:47:22.706Z,41.00
2024-01-07T14:49:50.729Z,41.00
2024-01-07T14:52:18.492Z,41.20
2024-01-07T14:54:46.405Z,41.30
2024-01-07T14:57:14.108Z,41.90
2024-01-07T14:59:41.798Z,44.30
2024-01-07T15:02:11.676Z,44.40
2024-01-07T15:04:41.511Z,43.70
2024-01-07T15:07:09.300Z,43.70
2024-01-07T15:09:37.368Z,43.50
2024-01-07T15:12:05.174Z,45.30
2024-01-07T15:14:32.884Z,45.80
2024-01-07T15:17:00.921Z,44.90
2024-01-07T15:19:28.750Z,44.00
2024-01-07T15:21:56.557Z,43.30
2024-01-07T15:24:24.329Z,44.00
2024-01-07T15:26:52.099Z,44.50
2024-01-07T15:29:21.049Z,43.80
2024-01-07T15:31:48.852Z,44.30
2024-01-07T15:34:16.811Z,43.70
2024-01-07T15:36:53.704Z,44.10
2024-01-07T15:39:21.598Z,43.10
2024-01-07T15:41:49.402Z,43.70
2024-01-07T15:44:17.193Z,43.90
2024-01-07T15:46:44.881Z,43.30
2024-01-07T15:49:12.743Z,43.10
2024-01-07T15:51:42.159Z,43.10
2024-01-07T15:54:09.920Z,43.60
2024-01-07T15:56:38.092Z,42.90
2024-01-07T15:59:05.844Z,43.80
2024-01-07T16:01:33.648Z,43.60
2024-01-07T16:04:01.729Z,43.10
2024-01-07T16:06:29.709Z,43.90
2024-01-07T16:08:58.033Z,43.30
2024-01-07T16:11:26.235Z,42.50
2024-01-07T16:13:54.244Z,43.60
2024-01-07T16:16:21.917Z,43.60
2024-01-07T16:18:50.476Z,42.90
2024-01-07T16:21:21.980Z,43.30
2024-01-07T16:23:50.881Z,43.70
2024-01-07T16:26:19.680Z,42.50
2024-01-07T16:28:48.086Z,43.10
2024-01-07T16:31:16.165Z,43.30
2024-01-07T16:33:44.791Z,43.80
2024-01-07T16:36:12.755Z,43.00
2024-01-07T16:38:40.760Z,43.00
2024-01-07T16:41:09.500Z,44.40
2024-01-07T16:43:37.628Z,43.60
2024-01-07T16:46:05.309Z,43.70
2024-01-07T16:51:03.957Z,43.20
2024-01-07T16:53:31.834Z,43.40
2024-01-07T16:55:59.686Z,44.50
2024-01-07T16:58:27.458Z,43.40
2024-01-07T17:00:58.405Z,43.70
2024-01-07T17:03:26.258Z,43.30
2024-01-07T17:05:54.056Z,44.00
2024-01-07T17:08:21.864Z,43.90
2024-01-07T17:10:49.613Z,43.80
2024-01-07T17:13:17.638Z,43.80
2024-01-07T17:15:45.483Z,44.10
2024-01-07T17:18:13.593Z,44.40
2024-01-07T17:20:42.729Z,44.00
2024-01-07T17:23:10.740Z,43.90
2024-01-07T17:25:38.803Z,44.40
2024-01-07T17:28:07.434Z,44.30
2024-01-07T17:30:36.317Z,44.50
2024-01-07T17:33:04.458Z,44.20
2024-01-07T17:35:32.570Z,44.20
2024-01-07T17:38:00.489Z,44.00
2024-01-07T17:40:28.172Z,44.10
2024-01-07T17:42:56.230Z,44.10
2024-01-07T17:45:24.998Z,44.20
2024-01-07T17:47:54.337Z,43.00
2024-01-07T17:50:22.577Z,41.10
2024-01-07T17:52:51.782Z,43.60
2024-01-07T17:55:20.233Z,43.90
2024-01-07T17:57:48.996Z,43.50
2024-01-07T18:00:19.497Z,43.60
2024-01-07T18:02:47.919Z,42.50
2024-01-07T18:05:16.449Z,43.50
2024-01-07T18:07:44.453Z,43.50
2024-01-07T18:10:12.912Z,43.90
2024-01-07T18:12:40.833Z,43.00
2024-01-07T18:15:08.982Z,44.60
2024-01-07T18:17:37.210Z,43.60
2024-01-07T18:20:05.385Z,44.00
2024-01-07T18:22:33.618Z,43.60
2024-01-07T18:25:01.350Z,43.90
2024-01-07T18:27:29.041Z,43.90
2024-01-07T18:29:58.162Z,43.60
2024-01-07T18:32:26.029Z,43.60
2024-01-07T18:34:54.730Z,43.90
2024-01-07T18:37:22.859Z,44.10
2024-01-07T18:39:50.506Z,44.30
2024-01-07T18:42:18.214Z,43.50
2024-01-07T18:44:46.000Z,43.50
2024-01-07T18:47:14.732Z,43.20
2024-01-07T18:49:42.498Z,44.50
2024-01-07T18:52:13.557Z,44.00
2024-01-07T18:54:42.572Z,43.80
2024-01-07T18:57:10.463Z,43.50
2024-01-07T18:59:38.223Z,44.40
2024-01-07T19:02:05.991Z,43.60
2024-01-07T19:04:33.778Z,43.50
2024-01-07T19:07:02.452Z,43.60
2024-01-07T19:09:30.065Z,43.90
2024-01-07T19:11:57.743Z,43.70
2024-01-07T19:14:25.700Z,43.90
2024-01-07T19:16:53.532Z,43.80
2024-01-07T19:19:21.614Z,44.00
2024-01-07T19:21:49.366Z,44.30
2024-01-07T19:24:17.053Z,44.00
2024-01-07T19:26:46.595Z,44.30
2024-01-07T19:29:14.486Z,43.40
2024-01-07T19:31:42.447Z,43.50
2024-01-07T19:34:10.432Z,43.80
2024-01-07T19:36:38.128Z,43.60
2024-01-07T19:39:08.109Z,44.40
2024-01-07T19:41:38.017Z,43.40
2024-01-07T19:44:06.020Z,41.40
2024-01-07T19:46:33.747Z,40.30
2024-01-07T19:49:02.321Z,39.90
2024-01-07T19:51:29.973Z,39.60
2024-01-07T19:53:57.815Z,39.30
2024-01-07T19:56:25.805Z,40.10
2024-01-07T19:58:53.734Z,39.70
2024-01-07T20:01:21.601Z,38.90
2024-01-07T20:03:49.407Z,38.60
2024-01-07T20:06:17.370Z,38.60
2024-01-07T20:08:45.232Z,39.40
2024-01-07T20:11:13.015Z,40.90
2024-01-07T20:13:40.671Z,41.30
2024-01-07T20:16:08.381Z,42.90
2024-01-07T20:18:36.259Z,43.00
2024-01-07T20:21:03.963Z,42.40
2024-01-07T20:23:31.744Z,42.60
2024-01-07T20:26:00.775Z,43.30
2024-01-07T20:28:28.575Z,42.80
2024-01-07T20:30:56.350Z,42.70
2024-01-07T20:33:24.239Z,43.50
2024-01-07T20:35:55.809Z,42.60
2024-01-07T20:38:24.514Z,42.50
2024-01-07T20:40:52.344Z,43.10
2024-01-07T20:43:20.091Z,43.00
2024-01-07T20:45:47.847Z,42.90
2024-01-07T20:48:15.723Z,43.00
2024-01-07T20:50:43.421Z,42.30
2024-01-07T20:53:11.205Z,42.70
2024-01-07T20:55:40.160Z,42.70
2024-01-07T20:58:08.204Z,43.10
2024-01-07T21:00:36.004Z,43.40
2024-01-07T21:03:04.590Z,43.20
2024-01-07T21:05:32.443Z,42.80
2024-01-07T21:08:00.322Z,42.80
2024-01-07T21:10:28.300Z,43.20
2024-01-07T21:12:58.843Z,42.50
2024-01-07T21:15:27.064Z,42.80
2024-01-07T21:18:01.139Z,42.50
2024-01-07T21:20:29.054Z,42.70
2024-01-07T21:22:56.972Z,42.50
2024-01-07T21:25:24.859Z,42.00
2024-01-07T21:27:52.585Z,41.80
2024-01-07T21:30:20.478Z,41.60
2024-01-07T21:32:48.486Z,41.80
2024-01-07T21:35:16.224Z,43.00
2024-01-07T21:37:44.830Z,42.40
2024-01-07T21:40:12.993Z,43.70
2024-01-07T21:42:41.026Z,43.50
2024-01-07T21:45:08.703Z,42.70
2024-01-07T21:47:36.581Z,43.40
2024-01-07T21:50:04.609Z,42.50
2024-01-07T21:52:32.436Z,42.20
2024-01-07T21:55:00.278Z,41.80
2024-01-07T21:57:28.558Z,42.50
2024-01-07T21:59:56.732Z,42.10
2024-01-07T22:02:24.547Z,41.90
2024-01-07T22:04:52.373Z,42.70
2024-01-07T22:07:21.899Z,42.60
2024-01-07T22:09:49.691Z,43.50
2024-01-07T22:12:17.605Z,42.30
2024-01-07T22:14:45.290Z,43.10
2024-01-07T22:17:13.000Z,42.30
2024-01-07T22:19:40.770Z,42.90
2024-01-07T22:22:09.270Z,42.10
2024-01-07T22:24:36.924Z,42.50
2024-01-07T22:27:04.619Z,42.60
2024-01-07T22:29:32.316Z,42.10
2024-01-07T22:32:00.362Z,41.80
2024-01-07T22:34:28.277Z,42.80
2024-01-07T22:36:55.993Z,42.60
2024-01-07T22:39:26.086Z,43.00
2024-01-07T22:41:53.798Z,43.00
2024-01-07T22:44:21.598Z,43.00
2024-01-07T22:46:50.614Z,42.60
2024-01-07T22:49:18.701Z,43.10
2024-01-07T22:51:46.618Z,42.80
2024-01-07T22:54:14.379Z,42.70
2024-01-07T22:56:42.976Z,42.70
2024-01-07T22:59:12.358Z,42.60
2024-01-07T23:01:40.626Z,42.50
2024-01-07T23:04:08.522Z,42.20
2024-01-07T23:06:38.461Z,43.20
2024-01-07T23:09:06.792Z,43.30
2024-01-07T23:11:35.246Z,42.20
2024-01-07T23:14:06.228Z,41.80
2024-01-07T23:16:36.034Z,42.10
2024-01-07T23:19:07.113Z,43.30
2024-01-07T23:21:38.952Z,41.40
2024-01-07T23:24:07.599Z,42.90
2024-01-07T23:26:35.908Z,41.90
2024-01-07T23:29:03.958Z,41.70
2024-01-07T23:31:31.838Z,43.00
2024-01-07T23:34:01.670Z,42.80
2024-01-07T23:36:31.502Z,43.00
2024-01-07T23:39:00.813Z,42.10
2024-01-07T23:41:28.907Z,42.60
2024-01-07T23:43:56.737Z,42.80
2024-01-07T23:46:24.534Z,42.70
2024-01-07T23:48:52.260Z,41.60
2024-01-07T23:51:22.379Z,42.60
2024-01-07T23:53:50.133Z,42.50
2024-01-07T23:56:17.952Z,42.90
2024-01-07T23:58:45.807Z,41.60
